Independence of the Seas — C6WW4 — position and weather

sailwx.info

Track history (hours):
 
Tides and Currents Weather Stations Pressure Air Temp Water Temp Dewpoint Dewpoint Depression Visibility Wind Speed Wind Dir Waves Ship Positions

Independence of the Seas

Last reported at 2016-Dec-01 00:00 UTC. Time now 2016-Dec-02 18:05 UTC.
Position N 19°48' W 073°24'.

Length 339 m; draft 8.8 m.

Type: Passenger vessel. MMSI: 309374000.

Wind from 070 at 19 knots

Barometer 1012.0 mb
Air temperature 26.2 ° C
Dewpoint 25.1 ° C
Water temperature 27.0 ° C

Date/timePositionNaut miles runAvg speedWind from/ knotsBaromVisibWave heightAir tempDewpointWater temp
2016-Dec-01 00:00N 19°48' W 073°24'50210.6 070 / 191012.0 26.225.127.0
2016-Nov-29 00:25N 25°37' W 079°55'1214.3
2016-Nov-28 23:33N 25°49' W 079°58'1515.1
2016-Nov-28 22:33N 26°03' W 080°04'3 2.3
2016-Nov-28 21:15N 26°05' W 080°07'0 0.0
2016-Nov-28 18:31N 26°05' W 080°07'0 0.0
2016-Nov-28 16:34N 26°05' W 080°07'0 0.0
2016-Nov-28 15:30N 26°05' W 080°07'0 0.0
2016-Nov-28 14:19N 26°05' W 080°07'0 0.0
2016-Nov-28 13:25N 26°05' W 080°07'0 0.0
2016-Nov-28 12:24N 26°05' W 080°07'0 0.5
2016-Nov-28 11:34N 26°06' W 080°07'1313.4
2016-Nov-28 10:34N 25°57' W 079°55'1918.6
2016-Nov-28 09:34N 25°39' W 079°50'50014.6
2016-Nov-26 23:26N 20°32' W 086°59'3 3.5
2016-Nov-26 22:29N 20°29' W 086°59'0 0.0
2016-Nov-26 21:32N 20°29' W 086°59'0 0.0
2016-Nov-26 20:32N 20°29' W 086°59'0 0.0
2016-Nov-26 19:32N 20°29' W 086°59'0 0.0
2016-Nov-26 18:32N 20°29' W 086°59'0 0.0
2016-Nov-26 17:32N 20°29' W 086°59'0 0.0
2016-Nov-26 16:32N 20°29' W 086°59'0 0.0
2016-Nov-26 15:29N 20°29' W 086°59'0 0.0
2016-Nov-26 14:32N 20°29' W 086°59'0 0.0
2016-Nov-26 13:32N 20°29' W 086°59'0 0.0
2016-Nov-26 12:33N 20°29' W 086°59'6 5.6
2016-Nov-26 11:34N 20°34' W 086°57'48913.6
2016-Nov-24 23:33N 25°40' W 080°01'1515.5
2016-Nov-24 22:33N 25°55' W 080°02'1110.9
2016-Nov-24 21:33N 26°06' W 080°07'0 0.2
2016-Nov-24 20:22N 26°05' W 080°07'0 0.0
2016-Nov-24 19:25N 26°05' W 080°07'0 0.0
2016-Nov-24 18:25N 26°05' W 080°07'0 0.0
2016-Nov-24 17:22N 26°05' W 080°07'0 0.0
2016-Nov-24 16:28N 26°05' W 080°07'0 0.0
2016-Nov-24 15:28N 26°05' W 080°07'0 0.0
2016-Nov-24 14:31N 26°05' W 080°07'0 0.0
2016-Nov-24 13:25N 26°05' W 080°07'0 0.0
2016-Nov-24 12:31N 26°05' W 080°07'1 1.1
2016-Nov-24 11:33N 26°06' W 080°06'1312.9
2016-Nov-24 10:33N 25°57' W 079°55'1716.5
2016-Nov-24 09:33N 25°41' W 079°50'50314.8
2016-Nov-22 23:32N 20°29' W 086°59'0 0.0
2016-Nov-22 13:04N 20°29' W 086°59'  
Track history (hours):
 
Tides and Currents Weather Stations Pressure Air Temp Water Temp Dewpoint Dewpoint Depression Visibility Wind Speed Wind Dir Waves Ship Positions

Independence of the Seas

Last reported at 2016-Dec-01 00:00 UTC. Time now 2016-Dec-02 18:05 UTC.
Position N 19°48' W 073°24'.

Length 339 m; draft 8.8 m.

Type: Passenger vessel. MMSI: 309374000.

Wind from 070 at 19 knots

Barometer 1012.0 mb
Air temperature 26.2 ° C
Dewpoint 25.1 ° C
Water temperature 27.0 ° C

Date/timePositionNaut miles runAvg speedWind from/ knotsBaromVisibWave heightAir tempDewpointWater temp
2016-Dec-01 00:00N 19°48' W 073°24'50210.6 070 / 191012.0 26.225.127.0
2016-Nov-29 00:25N 25°37' W 079°55'1214.3
2016-Nov-28 23:33N 25°49' W 079°58'1515.1
2016-Nov-28 22:33N 26°03' W 080°04'3 2.3
2016-Nov-28 21:15N 26°05' W 080°07'0 0.0
2016-Nov-28 18:31N 26°05' W 080°07'0 0.0
2016-Nov-28 16:34N 26°05' W 080°07'0 0.0
2016-Nov-28 15:30N 26°05' W 080°07'0 0.0
2016-Nov-28 14:19N 26°05' W 080°07'0 0.0
2016-Nov-28 13:25N 26°05' W 080°07'0 0.0
2016-Nov-28 12:24N 26°05' W 080°07'0 0.5
2016-Nov-28 11:34N 26°06' W 080°07'1313.4
2016-Nov-28 10:34N 25°57' W 079°55'1918.6
2016-Nov-28 09:34N 25°39' W 079°50'50014.6
2016-Nov-26 23:26N 20°32' W 086°59'3 3.5
2016-Nov-26 22:29N 20°29' W 086°59'0 0.0
2016-Nov-26 21:32N 20°29' W 086°59'0 0.0
2016-Nov-26 20:32N 20°29' W 086°59'0 0.0
2016-Nov-26 19:32N 20°29' W 086°59'0 0.0
2016-Nov-26 18:32N 20°29' W 086°59'0 0.0
2016-Nov-26 17:32N 20°29' W 086°59'0 0.0
2016-Nov-26 16:32N 20°29' W 086°59'0 0.0
2016-Nov-26 15:29N 20°29' W 086°59'0 0.0
2016-Nov-26 14:32N 20°29' W 086°59'0 0.0
2016-Nov-26 13:32N 20°29' W 086°59'0 0.0
2016-Nov-26 12:33N 20°29' W 086°59'6 5.6
2016-Nov-26 11:34N 20°34' W 086°57'48913.6
2016-Nov-24 23:33N 25°40' W 080°01'1515.5
2016-Nov-24 22:33N 25°55' W 080°02'1110.9
2016-Nov-24 21:33N 26°06' W 080°07'0 0.2
2016-Nov-24 20:22N 26°05' W 080°07'0 0.0
2016-Nov-24 19:25N 26°05' W 080°07'0 0.0
2016-Nov-24 18:25N 26°05' W 080°07'0 0.0
2016-Nov-24 17:22N 26°05' W 080°07'0 0.0
2016-Nov-24 16:28N 26°05' W 080°07'0 0.0
2016-Nov-24 15:28N 26°05' W 080°07'0 0.0
2016-Nov-24 14:31N 26°05' W 080°07'0 0.0
2016-Nov-24 13:25N 26°05' W 080°07'0 0.0
2016-Nov-24 12:31N 26°05' W 080°07'1 1.1
2016-Nov-24 11:33N 26°06' W 080°06'1312.9
2016-Nov-24 10:33N 25°57' W 079°55'1716.5
2016-Nov-24 09:33N 25°41' W 079°50'50314.8
2016-Nov-22 23:32N 20°29' W 086°59'0 0.0
2016-Nov-22 13:04N 20°29' W 086°59'  

Dump ship's entire track history